Time;durP1;ratioP1;P1;durP2;ratioP2;P2;SDS_P1;SDS_P2;PMS_P1;PMS_P2;Temp;Humidity;BMP_temperature;BMP_pressure;BME280_temperature;BME280_humidity;BME280_pressure;Samples;Min_cycle;Max_cycle;Signal;HPM_P1;HPM_P2
2022/06/12 00:00:54;;;;;;;1.80;1.70;;;;;;;19.10;62.68;101352.13;5053645;28;20208;-76
2022/06/12 00:03:23;;;;;;;1.83;1.73;;;;;;;19.13;64.72;101324.69;5053557;28;20560;-76
2022/06/12 00:05:51;;;;;;;1.77;1.67;;;;;;;19.21;65.65;101278.44;5053789;28;20243;-76
2022/06/12 00:08:19;;;;;;;2.50;1.67;;;;;;;19.14;63.98;101294.63;5053352;28;20200;-76
2022/06/12 00:10:50;;;;;;;2.43;1.70;;;;;;;19.07;64.00;101319.63;5053682;28;20249;-76
2022/06/12 00:13:20;;;;;;;3.80;1.87;;;;;;;18.91;63.11;101332.59;5053470;28;20211;-76
2022/06/12 00:15:47;;;;;;;3.37;1.93;;;;;;;18.88;64.08;101322.16;5053834;28;20228;-76
2022/06/12 00:18:13;;;;;;;2.27;1.70;;;;;;;18.79;62.87;101342.75;5053509;28;20299;-76
2022/06/12 00:20:40;;;;;;;2.40;2.00;;;;;;;18.55;63.84;101346.28;5053342;28;20203;-76
2022/06/12 00:23:08;;;;;;;5.07;2.17;;;;;;;18.62;63.61;101329.28;5053376;28;20209;-76
2022/06/12 00:25:35;;;;;;;3.00;1.67;;;;;;;18.65;63.70;101311.53;5053159;28;20233;-76
2022/06/12 00:28:05;;;;;;;2.10;1.77;;;;;;;18.65;64.58;101321.22;5053186;28;20196;-75
2022/06/12 00:30:32;;;;;;;2.77;2.00;;;;;;;18.66;63.79;101333.53;5053034;28;20631;-76
2022/06/12 00:32:59;;;;;;;1.80;1.70;;;;;;;18.65;63.11;101345.91;5053316;28;20835;-76
2022/06/12 00:35:29;;;;;;;3.40;1.70;;;;;;;18.77;65.94;101304.91;5053091;28;20227;-76
2022/06/12 00:37:56;;;;;;;2.00;1.53;;;;;;;18.84;64.54;101303.75;5053660;28;20572;-76
2022/06/12 00:40:23;;;;;;;3.10;1.90;;;;;;;18.49;63.14;101344.75;5052954;28;20208;-76
2022/06/12 00:42:53;;;;;;;4.60;2.20;;;;;;;18.44;63.18;101339.63;5053010;28;20220;-75
2022/06/12 00:45:39;;;;;;;5.70;2.30;;;;;;;18.39;64.21;101361.88;5052305;28;20733;-75
2022/06/12 00:48:08;;;;;;;3.07;1.90;;;;;;;18.24;64.41;101335.09;5052972;28;20617;-75
2022/06/12 00:50:38;;;;;;;2.90;1.93;;;;;;;18.08;64.96;101322.47;5052126;28;20219;-75
2022/06/12 00:53:07;;;;;;;3.40;2.17;;;;;;;17.95;64.55;101314.13;5053238;28;20217;-75
2022/06/12 00:55:40;;;;;;;5.77;1.80;;;;;;;17.99;66.73;101281.41;5052837;28;20319;-75
2022/06/12 00:58:11;;;;;;;6.57;2.00;;;;;;;17.93;65.10;101297.47;5053203;28;20231;-75
2022/06/12 01:00:40;;;;;;;2.37;1.90;;;;;;;17.86;65.04;101316.19;5052243;28;20559;-75
2022/06/12 01:03:07;;;;;;;3.87;2.23;;;;;;;17.78;65.45;101317.31;5052462;28;20203;-75
2022/06/12 01:08:20;;;;;;;9.23;3.57;;;;;;;17.67;65.53;101302.72;5052585;28;20241;-75
2022/06/12 01:10:48;;;;;;;2.77;2.23;;;;;;;17.72;65.70;101291.13;5052286;28;20765;-75
2022/06/12 01:13:18;;;;;;;4.00;2.50;;;;;;;17.70;65.71;101288.56;5052250;28;20208;-75
2022/06/12 01:15:51;;;;;;;3.77;2.30;;;;;;;17.65;66.61;101277.28;5052538;28;20237;-75
2022/06/12 01:18:21;;;;;;;5.87;2.40;;;;;;;17.69;66.20;101280.69;5052247;28;20204;-75
2022/06/12 01:20:55;;;;;;;3.47;2.13;;;;;;;17.69;66.73;101268.34;5052123;28;20191;-75
2022/06/12 01:23:42;;;;;;;2.97;2.33;;;;;;;17.66;67.39;101247.34;5052788;28;20196;-75
2022/06/12 01:26:31;;;;;;;6.07;2.70;;;;;;;17.56;67.67;101245.94;5052212;28;20290;-75
2022/06/12 01:29:04;;;;;;;2.93;2.30;;;;;;;17.47;67.80;101224.22;5052118;28;20196;-75
2022/06/12 01:31:43;;;;;;;3.00;2.47;;;;;;;17.39;68.23;101214.84;5052171;28;20203;-75
2022/06/12 01:34:22;;;;;;;3.53;2.40;;;;;;;17.38;67.84;101208.72;5052238;28;20197;-75
2022/06/12 01:36:55;;;;;;;4.80;2.30;;;;;;;17.36;67.98;101221.09;5052337;28;20223;-75
2022/06/12 01:39:30;;;;;;;5.43;2.67;;;;;;;17.34;67.92;101203.59;5052117;28;20200;-75
2022/06/12 01:42:13;;;;;;;5.97;2.47;;;;;;;17.44;67.26;101221.69;5052102;28;20223;-75
2022/06/12 01:44:49;;;;;;;3.07;2.47;;;;;;;17.44;67.27;101226.09;5052027;28;20239;-75
2022/06/12 01:47:25;;;;;;;3.93;2.20;;;;;;;17.31;67.60;101235.38;5051987;28;20754;-75
2022/06/12 01:50:02;;;;;;;3.10;2.20;;;;;;;17.13;68.19;101224.53;5051442;28;20200;-75
2022/06/12 01:52:36;;;;;;;2.77;2.43;;;;;;;17.01;68.68;101195.94;5052315;28;20204;-75
2022/06/12 01:55:10;;;;;;;3.80;2.40;;;;;;;16.94;69.58;101187.34;5051950;28;20215;-75
2022/06/12 01:57:43;;;;;;;4.00;2.50;;;;;;;16.85;69.55;101164.78;5051419;28;20192;-75
2022/06/12 02:00:16;;;;;;;2.63;2.00;;;;;;;16.93;70.07;101159.25;5051555;28;20208;-75
2022/06/12 02:02:48;;;;;;;4.80;2.30;;;;;;;16.85;69.97;101159.50;5051653;28;20612;-75
2022/06/12 02:05:18;;;;;;;3.23;2.47;;;;;;;16.84;70.71;101146.38;5051266;28;20220;-75
2022/06/12 02:07:52;;;;;;;4.23;2.37;;;;;;;16.59;70.96;101141.88;5051773;28;20707;-75
2022/06/12 02:10:23;;;;;;;5.00;2.87;;;;;;;16.54;70.93;101133.25;5051888;28;20195;-75
2022/06/12 02:13:13;;;;;;;3.43;2.20;;;;;;;16.41;71.59;101124.91;5051836;28;20198;-75
2022/06/12 02:15:49;;;;;;;5.67;2.67;;;;;;;16.43;71.86;101111.66;5051461;28;20589;-75
2022/06/12 02:18:23;;;;;;;8.50;2.87;;;;;;;16.58;71.79;101107.66;5051904;28;20299;-75
2022/06/12 02:20:55;;;;;;;5.07;2.53;;;;;;;16.69;71.91;101110.81;5051634;28;20196;-75
2022/06/12 02:23:28;;;;;;;3.20;2.43;;;;;;;16.80;71.26;101111.28;5052250;28;20211;-75
2022/06/12 02:25:56;;;;;;;4.83;2.37;;;;;;;16.90;70.44;101119.78;5051877;28;20231;-75
2022/06/12 02:28:29;;;;;;;5.27;2.10;;;;;;;16.99;70.08;101137.94;5052057;28;20266;-76
2022/06/12 02:31:01;;;;;;;3.60;2.17;;;;;;;17.12;70.43;101154.19;5051543;28;20203;-75
2022/06/12 02:33:35;;;;;;;3.70;2.30;;;;;;;17.06;69.44;101180.78;5051490;28;20261;-75
2022/06/12 02:36:06;;;;;;;6.10;2.73;;;;;;;17.05;69.95;101172.03;5051971;28;20215;-75
2022/06/12 02:38:38;;;;;;;4.90;2.10;;;;;;;17.17;69.91;101160.19;5051470;28;20290;-75
2022/06/12 02:41:10;;;;;;;4.63;2.90;;;;;;;17.05;70.16;101158.84;5051622;28;20256;-75
2022/06/12 02:43:41;;;;;;;4.97;2.90;;;;;;;17.09;70.08;101148.19;5051700;28;20299;-75
2022/06/12 02:46:13;;;;;;;4.53;2.20;;;;;;;16.99;70.22;101153.78;5051339;28;20704;-75
2022/06/12 02:48:40;;;;;;;3.33;1.93;;;;;;;16.86;70.41;101149.81;5051239;28;20212;-75
2022/06/12 02:51:15;;;;;;;4.77;2.50;;;;;;;16.73;71.42;101140.56;5050845;28;20210;-75
2022/06/12 02:53:58;;;;;;;3.77;2.23;;;;;;;16.68;71.88;101117.00;5051420;28;20674;-75
2022/06/12 02:56:30;;;;;;;5.40;3.10;;;;;;;16.61;71.75;101113.72;5051297;28;20318;-75
2022/06/12 02:59:06;;;;;;;5.80;2.87;;;;;;;16.60;72.01;101108.47;5051010;28;20266;-75
2022/06/12 03:01:38;;;;;;;5.33;2.70;;;;;;;16.75;71.94;101107.97;5051116;28;20666;-75
2022/06/12 03:04:10;;;;;;;5.50;2.40;;;;;;;16.86;71.58;101112.91;5051118;28;20190;-75
2022/06/12 03:06:38;;;;;;;2.70;2.00;;;;;;;16.96;71.39;101114.31;5050741;28;20258;-75
2022/06/12 03:09:07;;;;;;;5.37;2.80;;;;;;;16.98;71.06;101120.38;5053159;28;20601;-75
2022/06/12 03:11:37;;;;;;;3.90;2.57;;;;;;;17.03;70.89;101128.16;5054495;28;20257;-75
2022/06/12 03:14:08;;;;;;;4.47;2.40;;;;;;;17.03;71.08;101134.28;5054306;28;20200;-75
2022/06/12 03:16:40;;;;;;;4.83;2.53;;;;;;;17.06;70.57;101136.78;5054312;28;20635;-75
2022/06/12 03:19:09;;;;;;;3.60;2.33;;;;;;;17.10;70.59;101137.56;5054396;28;20226;-75
2022/06/12 03:21:41;;;;;;;4.53;2.80;;;;;;;17.13;70.50;101149.81;5053635;28;20851;-75
2022/06/12 03:24:29;;;;;;;5.50;3.07;;;;;;;17.06;70.48;101147.34;5054663;28;20191;-75
2022/06/12 03:27:10;;;;;;;3.20;2.23;;;;;;;16.96;70.94;101148.59;5054075;28;20588;-75
2022/06/12 03:29:47;;;;;;;6.33;3.13;;;;;;;16.83;71.20;101142.88;5054043;28;20310;-75
2022/06/12 03:32:22;;;;;;;7.00;2.70;;;;;;;16.82;71.56;101127.97;5054558;28;20200;-75
2022/06/12 03:34:55;;;;;;;6.20;2.70;;;;;;;16.78;71.62;101128.09;5053884;28;20195;-75
2022/06/12 03:37:27;;;;;;;7.80;2.87;;;;;;;16.76;72.12;101114.09;5054216;28;20618;-75
2022/06/12 03:40:02;;;;;;;5.40;2.50;;;;;;;16.80;72.21;101113.94;5053591;28;20558;-75
2022/06/12 03:42:35;;;;;;;4.97;2.70;;;;;;;16.74;72.03;101122.06;5053956;28;20596;-75
2022/06/12 03:45:07;;;;;;;4.77;2.60;;;;;;;16.72;72.20;101118.59;5053941;28;20193;-75
2022/06/12 03:47:44;;;;;;;6.00;2.90;;;;;;;16.71;72.57;101118.66;5053922;28;20233;-75
2022/06/12 03:50:16;;;;;;;4.33;2.73;;;;;;;16.75;72.44;101107.97;5046175;28;20197;-75
2022/06/12 03:52:50;;;;;;;4.10;2.60;;;;;;;16.81;72.09;101125.38;5054014;28;20561;-75
2022/06/12 03:57:50;;;;;;;5.20;2.70;;;;;;;16.84;72.08;101138.47;5046973;28;20237;-75
2022/06/12 03:58:19;;;;;;;5.60;2.90;;;;;;;16.79;72.32;101127.19;5053044;28;20299;-75
2022/06/12 04:00:50;;;;;;;7.57;3.17;;;;;;;16.74;72.59;101129.97;5053502;28;20208;-75
2022/06/12 04:03:20;;;;;;;4.67;2.50;;;;;;;16.57;73.18;101109.44;5049569;28;20245;-75
2022/06/12 04:05:50;;;;;;;5.60;3.03;;;;;;;16.61;73.70;101094.38;5053619;28;20227;-74
2022/06/12 04:08:20;;;;;;;8.47;3.37;;;;;;;16.21;74.77;101082.50;5053496;28;20945;-75
2022/06/12 04:10:48;;;;;;;5.33;3.93;;;;;;;15.94;76.12;101024.56;5053023;28;20273;-75
2022/06/12 04:13:18;;;;;;;5.03;3.27;;;;;;;15.97;76.64;100999.88;5053105;28;20203;-75
2022/06/12 04:15:49;;;;;;;5.73;3.37;;;;;;;16.05;76.63;100984.69;5053461;28;20224;-75
2022/06/12 04:18:16;;;;;;;7.40;3.37;;;;;;;15.82;77.27;100983.69;5053341;28;20621;-75
2022/06/12 04:20:51;;;;;;;7.47;3.80;;;;;;;15.85;77.58;100969.53;5052201;28;20196;-75
2022/06/12 04:23:25;;;;;;;7.00;3.33;;;;;;;15.90;77.78;100946.56;5052933;28;20917;-75
2022/06/12 04:25:55;;;;;;;5.37;3.53;;;;;;;15.94;77.18;100961.34;5053139;28;20267;-75
2022/06/12 04:28:26;;;;;;;7.77;4.10;;;;;;;15.89;77.34;100966.75;5053059;28;20203;-75
2022/06/12 04:30:54;;;;;;;7.23;3.67;;;;;;;15.79;77.91;100959.22;5053120;28;20204;-75
2022/06/12 04:33:37;;;;;;;5.07;3.40;;;;;;;15.85;78.07;100951.97;5053236;28;20204;-74
2022/06/12 04:36:08;;;;;;;4.33;3.30;;;;;;;15.77;78.15;100961.88;5052282;28;20219;-74
2022/06/12 04:38:36;;;;;;;6.87;3.90;;;;;;;15.81;78.29;100954.75;5052716;28;20194;-75
2022/06/12 04:41:03;;;;;;;6.77;3.70;;;;;;;15.81;77.90;100965.28;5052712;28;20198;-75
2022/06/12 04:43:30;;;;;;;5.37;3.17;;;;;;;15.95;77.87;100964.84;5052576;28;20738;-75
2022/06/12 04:45:57;;;;;;;6.33;3.60;;;;;;;15.89;77.60;100973.81;5052829;28;20217;-75
2022/06/12 04:48:28;;;;;;;4.70;3.57;;;;;;;15.81;77.94;100971.41;5052596;28;20600;-74
2022/06/12 04:50:54;;;;;;;7.33;4.60;;;;;;;15.97;77.83;100963.03;5052287;28;20190;-74
2022/06/12 04:53:22;;;;;;;8.97;4.40;;;;;;;16.19;76.81;100976.34;5052329;28;20632;-75
2022/06/12 04:55:49;;;;;;;6.20;3.87;;;;;;;15.93;76.63;101001.75;5052246;28;20789;-74
2022/06/12 04:58:15;;;;;;;7.97;4.30;;;;;;;15.86;77.48;100990.56;5052760;28;20199;-75
2022/06/12 05:00:42;;;;;;;5.13;3.90;;;;;;;15.88;77.43;100985.25;5052119;28;20210;-75
2022/06/12 05:03:08;;;;;;;4.90;4.03;;;;;;;15.88;76.98;100993.16;5052854;28;20253;-75
2022/06/12 05:05:35;;;;;;;4.53;3.70;;;;;;;15.77;77.30;100990.84;5052273;28;20230;-75
2022/06/12 05:08:01;;;;;;;5.50;4.13;;;;;;;15.51;78.80;100972.38;5052188;28;20267;-75
2022/06/12 05:10:29;;;;;;;5.50;4.30;;;;;;;15.66;79.05;100937.69;5051941;28;20206;-75
2022/06/12 05:12:56;;;;;;;6.20;4.07;;;;;;;15.72;78.87;100932.22;5052559;28;20202;-75
2022/06/12 05:15:22;;;;;;;6.17;3.80;;;;;;;15.90;78.99;100936.03;5051620;28;20802;-75
2022/06/12 05:17:50;;;;;;;7.77;4.07;;;;;;;15.87;79.09;100936.97;5044244;28;20252;-75
2022/06/12 05:20:20;;;;;;;11.50;4.80;;;;;;;16.07;78.90;100925.81;5051692;28;20203;-75
2022/06/12 05:22:47;;;;;;;9.50;4.30;;;;;;;16.10;77.90;100945.91;5051880;28;20202;-75
2022/06/12 05:25:15;;;;;;;9.43;4.23;;;;;;;16.20;77.73;100963.13;5051851;28;20231;-75
2022/06/12 05:27:44;;;;;;;7.27;3.80;;;;;;;16.15;78.80;100954.50;5051556;28;20231;-74
2022/06/12 05:30:12;;;;;;;5.30;3.57;;;;;;;16.17;79.48;100928.97;5051715;28;20624;-75
2022/06/12 05:32:39;;;;;;;6.07;4.17;;;;;;;16.10;80.09;100914.31;5052001;28;20614;-75
2022/06/12 05:35:07;;;;;;;5.97;4.77;;;;;;;16.00;81.31;100871.63;5050978;28;20680;-75
2022/06/12 05:37:34;;;;;;;6.20;4.37;;;;;;;16.15;81.52;100862.31;5052110;28;20199;-75
2022/06/12 05:40:00;;;;;;;9.27;4.43;;;;;;;16.35;81.19;100868.66;5043385;28;20566;-74
2022/06/12 05:42:28;;;;;;;9.07;4.40;;;;;;;16.50;80.92;100886.53;5051457;28;20206;-75
2022/06/12 05:44:55;;;;;;;5.00;3.93;;;;;;;16.64;79.68;100904.50;5051612;28;20210;-75
2022/06/12 05:47:22;;;;;;;7.77;4.30;;;;;;;16.62;79.44;100936.16;5051553;28;20765;-74
2022/06/12 05:49:49;;;;;;;5.77;3.90;;;;;;;16.51;80.07;100922.53;5051044;28;20630;-74
2022/06/12 05:52:16;;;;;;;8.53;4.23;;;;;;;16.53;79.86;100919.81;5051506;28;20664;-75
2022/06/12 05:54:43;;;;;;;7.57;4.40;;;;;;;16.74;79.67;100920.84;5051322;28;20206;-74
2022/06/12 05:57:09;;;;;;;9.63;4.93;;;;;;;16.78;77.85;100964.63;5051428;28;21013;-75
2022/06/12 05:59:36;;;;;;;7.23;5.27;;;;;;;16.93;79.18;100935.09;5051516;28;20209;-76
2022/06/12 06:02:04;;;;;;;7.67;4.37;;;;;;;17.06;77.63;100961.84;5051207;28;20727;-75
2022/06/12 06:04:30;;;;;;;8.00;3.90;;;;;;;17.19;77.98;100986.88;5051552;28;20663;-76
2022/06/12 06:06:58;;;;;;;6.13;3.97;;;;;;;17.31;77.32;101001.38;5050789;28;20705;-75
2022/06/12 06:09:26;;;;;;;8.73;4.13;;;;;;;17.36;76.24;101028.47;5050908;28;20568;-75
2022/06/12 06:11:52;;;;;;;7.67;3.60;;;;;;;17.55;76.18;101033.88;5051352;28;20250;-75
2022/06/12 06:14:19;;;;;;;6.43;3.97;;;;;;;17.56;75.57;101056.72;5051518;28;20215;-75
2022/06/12 06:16:46;;;;;;;5.17;4.20;;;;;;;17.58;75.69;101060.19;5051382;28;20231;-75
2022/06/12 06:19:15;;;;;;;7.87;3.90;;;;;;;17.75;75.98;101054.22;5051242;28;20273;-75
2022/06/12 06:21:42;;;;;;;5.33;3.87;;;;;;;17.73;74.98;101073.69;5051247;28;20216;-75
2022/06/12 06:24:09;;;;;;;7.60;3.67;;;;;;;17.89;74.22;101068.72;5051133;28;20204;-75
2022/06/12 06:26:36;;;;;;;4.40;3.50;;;;;;;17.96;74.96;101078.97;5051524;28;20629;-74
2022/06/12 06:29:03;;;;;;;5.57;3.37;;;;;;;18.03;73.63;101104.22;5050862;28;20225;-75
2022/06/12 06:31:30;;;;;;;4.93;3.60;;;;;;;18.00;72.79;101132.56;5051512;28;20200;-75
2022/06/12 06:33:57;;;;;;;6.07;3.20;;;;;;;18.09;72.53;101144.53;5050849;28;20203;-75
2022/06/12 06:36:25;;;;;;;5.67;3.60;;;;;;;18.09;71.58;101179.75;5050853;28;20624;-75
2022/06/12 06:38:54;;;;;;;7.80;4.43;;;;;;;18.19;70.37;101215.44;5051125;28;20269;-75
2022/06/12 06:41:21;;;;;;;3.47;3.17;;;;;;;18.17;70.16;101238.44;5051001;28;20204;-76
2022/06/12 06:46:31;;;;;;;5.80;3.30;;;;;;;18.16;71.30;101212.09;5055117;28;20246;-75
2022/06/12 06:48:58;;;;;;;3.80;3.10;;;;;;;18.23;69.68;101237.34;5054700;28;20727;-75
2022/06/12 06:51:26;;;;;;;5.27;3.33;;;;;;;18.20;69.61;101238.34;5046895;28;20247;-75
2022/06/12 06:53:53;;;;;;;8.97;3.00;;;;;;;18.24;69.39;101233.81;5054878;28;20208;-75
2022/06/12 06:56:20;;;;;;;5.53;3.30;;;;;;;18.40;69.25;101221.72;5054916;28;20219;-75
2022/06/12 06:58:47;;;;;;;9.00;3.83;;;;;;;18.51;67.63;101279.44;5054960;28;20207;-75
2022/06/12 07:01:13;;;;;;;6.47;3.20;;;;;;;18.52;68.23;101296.19;5054775;28;20209;-75
2022/06/12 07:03:40;;;;;;;6.80;3.80;;;;;;;18.61;69.56;101256.16;5054886;28;20205;-75
2022/06/12 07:06:07;;;;;;;8.00;3.30;;;;;;;18.74;69.63;101222.16;5054030;28;20220;-74
2022/06/12 07:08:34;;;;;;;7.13;2.40;;;;;;;18.82;64.40;101321.47;5054905;28;20220;-75
2022/06/12 07:11:01;;;;;;;6.23;2.77;;;;;;;18.98;65.77;101358.75;5054377;28;20208;-75
2022/06/12 07:13:28;;;;;;;5.70;2.60;;;;;;;19.03;65.61;101369.19;5054321;28;20212;-75
2022/06/12 07:15:54;;;;;;;8.17;3.13;;;;;;;19.07;60.28;101447.53;5054328;28;20724;-74
2022/06/12 07:18:21;;;;;;;6.30;2.57;;;;;;;19.12;60.47;101524.97;5054602;28;20205;-75
2022/06/12 07:20:51;;;;;;;5.00;2.27;;;;;;;19.19;61.19;101512.38;5054002;28;20295;-75
2022/06/12 07:23:19;;;;;;;4.90;2.13;;;;;;;19.18;58.73;101498.25;5054137;28;20666;-75
2022/06/12 07:25:51;;;;;;;7.17;2.60;;;;;;;19.15;60.91;101534.59;5053893;28;20228;-75
2022/06/12 07:28:18;;;;;;;5.80;2.10;;;;;;;19.24;58.71;101518.34;5046438;28;20694;-75
2022/06/12 07:30:45;;;;;;;5.20;1.97;;;;;;;19.34;57.07;101616.81;5050308;28;20281;-74
2022/06/12 07:33:12;;;;;;;4.07;2.00;;;;;;;19.36;54.20;101633.50;5049638;28;20207;-74
2022/06/12 07:35:41;;;;;;;6.53;2.03;;;;;;;19.48;53.81;101693.13;5045722;28;20232;-74
2022/06/12 07:38:08;;;;;;;5.47;1.90;;;;;;;19.54;55.68;101704.34;5045805;28;20196;-75
2022/06/12 07:40:38;;;;;;;6.23;2.33;;;;;;;19.56;57.84;101628.38;5045788;28;20262;-75
2022/06/12 07:43:08;;;;;;;3.30;1.67;;;;;;;19.55;54.38;101599.28;5044442;28;20267;-74
2022/06/12 07:45:35;;;;;;;6.07;2.03;;;;;;;19.63;55.25;101663.41;5044033;28;21791;-74
2022/06/12 07:48:01;;;;;;;4.77;1.90;;;;;;;19.67;54.66;101646.50;5044235;28;20696;-75
2022/06/12 07:50:28;;;;;;;3.10;1.63;;;;;;;19.77;55.56;101674.38;5043663;28;20205;-74
2022/06/12 07:52:55;;;;;;;5.00;2.70;;;;;;;19.69;54.46;101676.44;5043831;28;20664;-75
2022/06/12 07:55:22;;;;;;;5.00;1.93;;;;;;;19.71;55.22;101679.03;5042945;28;20612;-74
2022/06/12 07:57:49;;;;;;;6.23;3.00;;;;;;;19.71;54.80;101663.13;5049551;28;20533;-74
2022/06/12 08:00:18;;;;;;;5.83;1.90;;;;;;;19.76;54.93;101685.03;5053168;28;20205;-74
2022/06/12 08:02:46;;;;;;;5.43;2.27;;;;;;;19.83;55.24;101668.00;5053347;28;20616;-74
2022/06/12 08:05:14;;;;;;;7.27;2.43;;;;;;;19.90;55.54;101677.47;5050691;28;20313;-75
2022/06/12 08:07:40;;;;;;;3.57;1.77;;;;;;;19.88;54.70;101696.97;5039192;28;20205;-75
2022/06/12 08:10:08;;;;;;;5.67;1.87;;;;;;;19.89;55.11;101704.88;5046440;28;20208;-75
2022/06/12 08:12:37;;;;;;;4.30;2.13;;;;;;;20.03;55.91;101684.00;5045364;28;20609;-75
2022/06/12 08:15:05;;;;;;;7.97;2.73;;;;;;;20.13;55.99;101649.19;5044236;28;20201;-75
2022/06/12 08:17:33;;;;;;;3.80;1.90;;;;;;;20.16;55.63;101664.97;5050558;28;20248;-75
2022/06/12 08:22:44;;;;;;;7.27;2.37;;;;;;;20.27;53.98;101696.38;5049785;28;20749;-75
2022/06/12 08:25:10;;;;;;;7.47;2.17;;;;;;;20.40;54.42;101700.25;5050179;28;20282;-75
2022/06/12 08:27:37;;;;;;;4.60;2.10;;;;;;;20.38;54.57;101710.06;5049635;28;20205;-74
2022/06/12 08:30:04;;;;;;;5.13;2.10;;;;;;;20.37;52.96;101679.16;5050149;28;20217;-74
2022/06/12 08:32:32;;;;;;;3.90;2.10;;;;;;;20.39;53.64;101733.84;5049449;28;20201;-74
2022/06/12 08:35:02;;;;;;;5.87;2.10;;;;;;;20.60;54.15;101716.25;5049837;28;20214;-75
2022/06/12 08:37:34;;;;;;;4.77;2.20;;;;;;;20.69;54.46;101701.75;5049803;28;20247;-75
2022/06/12 08:40:00;;;;;;;4.93;1.97;;;;;;;20.53;54.30;101714.75;5042423;28;20198;-76
2022/06/12 08:42:31;;;;;;;3.97;1.90;;;;;;;20.59;54.82;101700.41;5049771;28;20675;-74
2022/06/12 08:45:03;;;;;;;4.63;2.03;;;;;;;20.61;55.53;101670.25;5041773;28;20247;-75
2022/06/12 08:47:37;;;;;;;5.83;2.07;;;;;;;20.50;56.22;101656.53;5049661;28;20201;-75
2022/06/12 08:50:12;;;;;;;4.07;2.03;;;;;;;20.49;56.64;101636.22;5049713;28;20250;-75
2022/06/12 08:52:43;;;;;;;5.97;2.40;;;;;;;20.39;54.75;101642.81;5049187;28;20651;-75
2022/06/12 08:55:15;;;;;;;4.83;1.97;;;;;;;20.40;54.42;101689.66;5050082;28;20227;-75
2022/06/12 08:57:49;;;;;;;5.87;2.10;;;;;;;20.50;54.59;101685.69;5049458;28;20253;-75
2022/06/12 09:00:19;;;;;;;4.80;1.73;;;;;;;20.80;54.07;101657.06;5049831;28;20201;-75
2022/06/12 09:02:48;;;;;;;5.17;2.43;;;;;;;20.93;53.65;101705.19;5049777;28;20208;-75
2022/06/12 09:05:21;;;;;;;4.20;2.27;;;;;;;20.58;52.97;101723.38;5049854;28;20217;-75
2022/06/12 09:07:52;;;;;;;5.37;2.00;;;;;;;20.58;52.05;101685.41;5048799;28;20203;-74
2022/06/12 09:10:26;;;;;;;4.27;1.93;;;;;;;20.65;52.11;101729.34;5049499;28;20205;-75
2022/06/12 09:12:57;;;;;;;3.97;1.70;;;;;;;20.77;51.74;101730.63;5049215;28;20196;-75
2022/06/12 09:15:38;;;;;;;4.40;1.40;;;;;;;21.07;53.07;101712.56;5049318;28;20232;-75
2022/06/12 09:18:14;;;;;;;3.57;1.80;;;;;;;21.05;51.55;101737.44;5041186;28;20255;-75
2022/06/12 09:20:48;;;;;;;4.93;1.97;;;;;;;21.17;50.97;101742.25;5048428;28;20615;-75
2022/06/12 09:23:28;;;;;;;5.40;2.43;;;;;;;21.08;50.52;101759.44;5042010;28;20711;-75
2022/06/12 09:26:01;;;;;;;4.73;2.10;;;;;;;21.24;50.88;101757.00;5048970;28;20274;-75
2022/06/12 09:28:38;;;;;;;5.53;2.03;;;;;;;21.13;49.24;101768.06;5051275;28;20263;-75
2022/06/12 09:31:10;;;;;;;3.40;1.40;;;;;;;21.12;49.16;101807.97;5051688;28;20236;-75
2022/06/12 09:33:48;;;;;;;4.73;1.80;;;;;;;21.22;49.32;101812.81;5050533;28;20284;-75
2022/06/12 09:36:33;;;;;;;5.87;2.07;;;;;;;21.08;47.92;101809.00;5051255;28;20323;-74
2022/06/12 09:39:06;;;;;;;4.20;1.73;;;;;;;21.27;48.74;101830.34;5048578;28;20195;-75
2022/06/12 09:41:47;;;;;;;5.93;2.50;;;;;;;21.32;47.52;101861.09;5048817;28;20306;-75
2022/06/12 09:44:18;;;;;;;3.73;1.90;;;;;;;21.38;47.26;101862.66;5049205;28;20201;-75
2022/06/12 09:47:00;;;;;;;3.87;1.60;;;;;;;21.32;47.79;101886.81;5048806;28;20234;-75
2022/06/12 09:49:34;;;;;;;4.20;1.83;;;;;;;21.39;48.25;101870.56;5048500;28;20234;-75
2022/06/12 09:52:22;;;;;;;2.73;1.80;;;;;;;21.54;46.72;101831.03;5048364;28;20190;-75
2022/06/12 09:54:57;;;;;;;4.60;1.60;;;;;;;21.68;45.91;101859.66;5048432;28;20605;-76
2022/06/12 09:57:34;;;;;;;3.17;1.60;;;;;;;21.64;45.91;101872.22;5042135;28;20201;-75
2022/06/12 10:00:06;;;;;;;3.20;1.60;;;;;;;21.84;48.10;101889.09;5048243;28;20214;-75
2022/06/12 10:02:37;;;;;;;4.60;1.80;;;;;;;21.68;46.33;101849.88;5048452;28;20193;-75
2022/06/12 10:05:12;;;;;;;4.97;1.73;;;;;;;21.47;46.99;101874.75;5048318;28;20197;-75
2022/06/12 10:07:44;;;;;;;5.30;2.00;;;;;;;21.54;46.50;101870.88;5048473;28;20204;-75
2022/06/12 10:10:19;;;;;;;7.53;2.17;;;;;;;21.75;45.90;101846.03;5047952;28;20232;-75
2022/06/12 10:12:51;;;;;;;3.87;1.83;;;;;;;21.78;45.35;101855.66;5048381;28;20788;-75
2022/06/12 10:15:22;;;;;;;2.73;1.60;;;;;;;21.80;46.14;101860.00;5047860;28;20235;-75
2022/06/12 10:17:56;;;;;;;3.60;1.63;;;;;;;21.91;45.29;101850.69;5047863;28;20201;-76
2022/06/12 10:20:29;;;;;;;3.97;1.77;;;;;;;21.93;44.51;101856.81;5041244;28;20206;-75
2022/06/12 10:22:57;;;;;;;3.33;1.40;;;;;;;21.58;46.24;101886.63;5048414;28;20259;-74
2022/06/12 10:25:27;;;;;;;4.00;1.97;;;;;;;21.56;46.85;101851.28;5048770;28;20665;-75
2022/06/12 10:27:58;;;;;;;2.90;1.70;;;;;;;21.76;45.07;101846.91;5048649;28;20205;-75
2022/06/12 10:30:31;;;;;;;3.53;1.40;;;;;;;21.93;44.06;101859.47;5048168;28;20225;-75
2022/06/12 10:33:09;;;;;;;5.07;2.23;;;;;;;21.92;43.73;101876.34;5048884;28;20638;-75
2022/06/12 10:35:47;;;;;;;3.60;1.57;;;;;;;21.96;45.11;101877.94;5041473;28;20213;-75
2022/06/12 10:38:14;;;;;;;5.23;1.97;;;;;;;22.14;44.28;101855.88;5047869;28;20835;-75
2022/06/12 10:40:48;;;;;;;5.53;2.03;;;;;;;21.92;43.29;101852.41;5047700;28;20679;-75
2022/06/12 10:43:31;;;;;;;3.60;2.23;;;;;;;22.14;45.80;101903.75;5047405;28;20710;-74
2022/06/12 10:46:05;;;;;;;3.73;1.80;;;;;;;22.19;44.15;101864.47;5047798;28;20221;-75
2022/06/12 10:48:34;;;;;;;4.27;2.20;;;;;;;22.09;43.54;101860.50;5039971;28;20255;-75
2022/06/12 10:51:06;;;;;;;4.83;1.97;;;;;;;22.24;44.72;101898.00;5047890;28;20213;-75
2022/06/12 10:53:34;;;;;;;3.93;1.97;;;;;;;22.36;44.82;101879.72;5048469;28;20198;-74
2022/06/12 10:56:17;;;;;;;3.93;1.90;;;;;;;22.17;43.12;101884.97;5048075;28;20528;-75
2022/06/12 10:59:18;;;;;;;4.57;2.10;;;;;;;22.45;44.33;101865.13;5048123;28;20195;-75
2022/06/12 11:01:57;;;;;;;4.33;2.20;;;;;;;22.66;42.80;101860.63;5047829;28;20285;-76
2022/06/12 11:04:37;;;;;;;3.17;1.80;;;;;;;22.74;42.77;101882.41;5048104;28;20193;-75
2022/06/12 11:07:19;;;;;;;6.33;1.80;;;;;;;22.93;44.11;101893.06;5047540;28;20740;-76
2022/06/12 11:10:03;;;;;;;4.47;2.00;;;;;;;22.69;41.96;101855.13;5040904;28;20221;-76
2022/06/12 11:12:43;;;;;;;3.90;1.90;;;;;;;22.94;43.68;101888.59;5047904;28;20248;-76
2022/06/12 11:15:27;;;;;;;4.67;2.03;;;;;;;23.18;43.31;101858.13;5048168;28;20308;-76
2022/06/12 11:18:01;;;;;;;4.33;2.10;;;;;;;23.14;41.65;101856.56;5047754;28;20194;-76
2022/06/12 11:20:40;;;;;;;5.50;2.13;;;;;;;22.80;41.76;101895.44;5047191;28;20263;-76
2022/06/12 11:23:22;;;;;;;4.47;2.00;;;;;;;23.13;43.27;101928.53;5047446;28;20259;-76
2022/06/12 11:26:00;;;;;;;4.80;2.03;;;;;;;22.91;42.53;101907.38;5040456;28;20715;-76
2022/06/12 11:28:38;;;;;;;4.17;1.67;;;;;;;23.20;42.20;101893.53;5047839;28;20248;-76
2022/06/12 11:31:25;;;;;;;4.17;2.23;;;;;;;23.09;42.50;101892.34;5051264;28;20616;-76
2022/06/12 11:34:02;;;;;;;3.13;1.97;;;;;;;23.45;41.19;101878.13;5050907;28;20205;-76
2022/06/12 11:36:38;;;;;;;4.20;1.87;;;;;;;24.24;40.67;101904.34;5051022;28;20234;-76
2022/06/12 11:39:30;;;;;;;3.53;1.80;;;;;;;24.56;38.74;101906.19;5050820;28;20487;-76
2022/06/12 11:42:24;;;;;;;5.33;2.47;;;;;;;24.25;39.04;101954.97;5050183;28;20209;-75
2022/06/12 11:45:03;;;;;;;4.07;2.10;;;;;;;25.12;38.62;101954.75;5050974;28;20201;-76
2022/06/12 11:47:44;;;;;;;3.53;2.00;;;;;;;25.65;37.58;101974.06;5050840;28;20209;-76
2022/06/12 11:50:26;;;;;;;3.87;2.53;;;;;;;26.17;37.01;101978.16;5043103;28;20304;-76
2022/06/12 11:53:02;;;;;;;3.33;2.20;;;;;;;23.69;39.25;102002.22;5050599;28;20318;-76